Time;durP1;ratioP1;P1;durP2;ratioP2;P2;SDS_P1;SDS_P2;PMS_P1;PMS_P2;Temp;Humidity;BMP_temperature;BMP_pressure;BME280_temperature;BME280_humidity;BME280_pressure;Samples;Min_cycle;Max_cycle;Signal;HPM_P1;HPM_P2
2022/09/11 00:01:57;;;;;;;;;;;17.90;83.50;;;;;;6340414;22;20256;-95
2022/09/11 00:04:25;;;;;;;;;;;18.00;84.10;;;;;;6340266;22;19939;-95
2022/09/11 00:06:51;;;;;;;;;;;18.00;84.20;;;;;;6340648;22;19957;-95
2022/09/11 00:09:16;;;;;;;;;;;18.00;84.70;;;;;;6340157;22;20359;-94
2022/09/11 00:11:42;;;;;;;;;;;18.00;85.40;;;;;;6312646;22;19939;-95
2022/09/11 00:14:12;;;;;;;;;;;18.00;85.80;;;;;;6340156;22;20446;-94
2022/09/11 00:16:40;;;;;;;;;;;18.00;86.00;;;;;;6340576;22;20005;-95
2022/09/11 00:19:06;;;;;;;;;;;18.00;85.90;;;;;;6312556;22;19938;-95
2022/09/11 00:21:32;;;;;;;;;;;18.00;85.90;;;;;;6340519;22;19945;-95
2022/09/11 00:23:58;;;;;;;;;;;18.00;86.10;;;;;;6340431;22;19965;-94
2022/09/11 00:26:24;;;;;;;;;;;18.00;86.20;;;;;;6340116;22;20317;-94
2022/09/11 00:28:51;;;;;;;;;;;18.10;86.00;;;;;;6340187;22;19962;-95
2022/09/11 00:31:21;;;;;;;;;;;18.00;85.80;;;;;;6340561;22;20349;-94
2022/09/11 00:33:47;;;;;;;;;;;18.10;85.90;;;;;;6339930;22;19952;-94
2022/09/11 00:36:14;;;;;;;;;;;18.20;85.60;;;;;;6340010;22;19946;-94
2022/09/11 00:38:41;;;;;;;;;;;18.20;85.40;;;;;;6339906;22;19952;-94
2022/09/11 00:41:09;;;;;;;;;;;18.30;85.20;;;;;;6306776;22;20389;-94
2022/09/11 00:43:49;;;;;;;;;;;18.30;84.60;;;;;;6308702;22;19958;-94
2022/09/11 00:46:15;;;;;;;;;;;18.40;84.20;;;;;;6308619;22;19934;-95
2022/09/11 00:48:41;;;;;;;;;;;18.40;83.80;;;;;;6307062;22;20005;-94
2022/09/11 00:51:06;;;;;;;;;;;18.30;84.10;;;;;;6306929;22;19936;-94
2022/09/11 00:53:33;;;;;;;;;;;18.20;84.60;;;;;;6307330;22;19962;-94
2022/09/11 00:56:01;;;;;;;;;;;18.10;84.90;;;;;;6308874;22;19935;-95
2022/09/11 00:58:29;;;;;;;;;;;18.10;84.60;;;;;;6308754;22;19945;-94
2022/09/11 01:00:55;;;;;;;;;;;18.00;84.40;;;;;;6308426;22;19941;-94
2022/09/11 01:03:22;;;;;;;;;;;18.00;84.70;;;;;;6306943;22;19939;-94
2022/09/11 01:05:48;;;;;;;;;;;18.10;84.80;;;;;;6308524;22;20349;-95
2022/09/11 01:08:14;;;;;;;;;;;18.10;84.90;;;;;;6308609;22;19937;-94
2022/09/11 01:11:03;;;;;;;;;;;18.00;84.90;;;;;;6308490;22;20011;-95
2022/09/11 01:13:34;;;;;;;;;;;18.10;85.00;;;;;;6306616;22;20381;-95
2022/09/11 01:16:04;;;;;;;;;;;18.10;85.00;;;;;;6308448;22;19931;-95
2022/09/11 01:18:42;;;;;;;;;;;18.10;85.30;;;;;;6309111;22;19935;-95
2022/09/11 01:21:17;;;;;;;;;;;18.20;86.40;;;;;;6308705;22;19932;-95
2022/09/11 01:24:01;;;;;;;;;;;18.30;85.90;;;;;;6308406;22;20259;-95
2022/09/11 01:26:36;;;;;;;;;;;18.30;85.90;;;;;;6308598;22;19965;-94
2022/09/11 01:29:10;;;;;;;;;;;18.40;85.10;;;;;;6308594;22;19979;-95
2022/09/11 01:31:41;;;;;;;;;;;18.40;84.70;;;;;;6308271;22;19943;-95
2022/09/11 01:34:21;;;;;;;;;;;18.50;84.80;;;;;;6306734;22;19963;-95
2022/09/11 01:36:52;;;;;;;;;;;18.50;84.50;;;;;;6308327;22;20018;-95
2022/09/11 01:42:19;;;;;;;;;;;18.40;84.50;;;;;;6371541;22;20016;-95
2022/09/11 01:44:47;;;;;;;;;;;18.30;84.80;;;;;;6371371;22;19951;-95
2022/09/11 01:47:15;;;;;;;;;;;18.20;85.50;;;;;;6371045;22;19933;-95
2022/09/11 01:49:40;;;;;;;;;;;18.10;86.10;;;;;;6371452;22;19938;-95
2022/09/11 01:52:15;;;;;;;;;;;18.10;86.30;;;;;;6343299;22;19940;-95
2022/09/11 01:54:45;;;;;;;;;;;18.10;86.50;;;;;;6371058;22;19981;-95
2022/09/11 01:57:12;;;;;;;;;;;18.00;86.70;;;;;;6371738;22;19947;-95
2022/09/11 01:59:41;;;;;;;;;;;18.00;87.40;;;;;;6370981;22;20378;-95
2022/09/11 02:02:09;;;;;;;;;;;18.00;87.60;;;;;;6344620;22;19932;-95
2022/09/11 02:04:39;;;;;;;;;;;18.00;88.20;;;;;;6370953;22;20018;-95
2022/09/11 02:07:11;;;;;;;;;;;18.00;88.50;;;;;;6371037;22;19933;-95
2022/09/11 02:09:40;;;;;;;;;;;18.00;88.60;;;;;;6371103;22;19932;-96
2022/09/11 02:12:08;;;;;;;;;;;17.90;88.70;;;;;;6371240;22;19942;-95
2022/09/11 02:14:45;;;;;;;;;;;17.80;88.60;;;;;;6344789;22;19958;-95
2022/09/11 02:17:23;;;;;;;;;;;17.80;88.50;;;;;;6373011;22;19923;-95
2022/09/11 02:19:49;;;;;;;;;;;17.80;88.40;;;;;;6372868;22;19960;-95
2022/09/11 02:22:15;;;;;;;;;;;17.70;88.20;;;;;;6373230;22;19934;-95
2022/09/11 02:24:41;;;;;;;;;;;17.60;88.30;;;;;;6372845;22;19971;-95
2022/09/11 02:27:10;;;;;;;;;;;17.60;88.40;;;;;;6373298;22;19930;-95
2022/09/11 02:29:38;;;;;;;;;;;17.50;88.40;;;;;;6372997;22;19940;-95
2022/09/11 02:32:04;;;;;;;;;;;17.40;88.50;;;;;;6373153;22;19934;-95
2022/09/11 02:34:34;;;;;;;;;;;17.40;88.60;;;;;;6372846;22;19949;-95
2022/09/11 02:37:08;;;;;;;;;;;17.30;88.60;;;;;;6372686;22;19940;-95
2022/09/11 02:39:52;;;;;;;;;;;17.30;88.70;;;;;;6354282;22;19950;-96
2022/09/11 02:42:23;;;;;;;;;;;17.30;88.80;;;;;;6341419;22;19944;-94
2022/09/11 02:45:04;;;;;;;;;;;17.20;88.90;;;;;;6340975;22;19936;-95
2022/09/11 02:47:30;;;;;;;;;;;17.20;89.10;;;;;;6340988;22;19933;-95
2022/09/11 02:49:56;;;;;;;;;;;17.10;89.30;;;;;;6341358;22;19940;-95
2022/09/11 02:52:27;;;;;;;;;;;17.10;89.40;;;;;;6341298;22;19933;-95
2022/09/11 02:54:56;;;;;;;;;;;17.10;89.50;;;;;;6340798;22;20366;-95
2022/09/11 02:57:24;;;;;;;;;;;17.10;89.60;;;;;;6340974;22;19935;-96
2022/09/11 02:59:55;;;;;;;;;;;17.10;89.70;;;;;;6341367;22;20008;-95
2022/09/11 03:02:22;;;;;;;;;;;17.10;89.80;;;;;;6341539;22;19934;-95
2022/09/11 03:04:47;;;;;;;;;;;17.10;90.20;;;;;;6313289;22;19981;-95
2022/09/11 03:07:13;;;;;;;;;;;17.10;90.30;;;;;;6340944;22;19938;-95
2022/09/11 03:09:38;;;;;;;;;;;17.10;90.70;;;;;;6313218;22;19972;-96
2022/09/11 03:12:04;;;;;;;;;;;17.10;90.50;;;;;;6313131;22;19938;-94
2022/09/11 03:14:30;;;;;;;;;;;17.10;90.50;;;;;;6340595;22;19950;-95
2022/09/11 03:16:55;;;;;;;;;;;17.00;90.40;;;;;;6313246;22;19941;-96
2022/09/11 03:19:21;;;;;;;;;;;16.90;90.10;;;;;;6340851;22;20013;-95
2022/09/11 03:21:47;;;;;;;;;;;16.80;90.50;;;;;;6341094;22;19935;-95
2022/09/11 03:24:15;;;;;;;;;;;16.90;90.40;;;;;;6340415;22;19958;-95
2022/09/11 03:26:41;;;;;;;;;;;17.00;90.40;;;;;;6340986;22;20358;-95
2022/09/11 03:29:07;;;;;;;;;;;17.00;90.30;;;;;;6340971;22;19938;-95
2022/09/11 03:31:33;;;;;;;;;;;17.10;90.30;;;;;;6340653;22;20350;-95
2022/09/11 03:33:58;;;;;;;;;;;17.10;90.20;;;;;;6340865;22;19956;-95
2022/09/11 03:36:24;;;;;;;;;;;17.10;90.10;;;;;;6340977;22;19933;-95
2022/09/11 03:38:51;;;;;;;;;;;17.10;90.10;;;;;;6340612;22;19950;-95
2022/09/11 03:41:17;;;;;;;;;;;17.10;90.10;;;;;;6340535;22;20020;-95
2022/09/11 03:43:43;;;;;;;;;;;17.10;90.10;;;;;;6340504;22;20018;-95
2022/09/11 03:46:09;;;;;;;;;;;17.20;90.10;;;;;;6340768;22;19936;-95
2022/09/11 03:48:35;;;;;;;;;;;17.20;90.00;;;;;;6340904;22;19935;-95
2022/09/11 03:51:00;;;;;;;;;;;17.20;89.90;;;;;;6312757;22;19947;-94
2022/09/11 03:53:26;;;;;;;;;;;17.10;89.90;;;;;;6340650;22;19935;-95
2022/09/11 03:55:52;;;;;;;;;;;17.30;90.60;;;;;;6312828;22;19978;-95
2022/09/11 03:58:18;;;;;;;;;;;17.10;90.20;;;;;;6340609;22;19940;-95
2022/09/11 04:00:44;;;;;;;;;;;16.90;89.80;;;;;;6340717;22;19936;-95
2022/09/11 04:03:14;;;;;;;;;;;16.70;90.00;;;;;;6312862;22;20239;-95
2022/09/11 04:05:40;;;;;;;;;;;16.60;90.40;;;;;;6340612;22;19935;-94
2022/09/11 04:08:06;;;;;;;;;;;16.50;90.70;;;;;;6340712;22;20396;-96
2022/09/11 04:10:33;;;;;;;;;;;16.50;91.10;;;;;;6340290;22;19936;-95
2022/09/11 04:12:59;;;;;;;;;;;16.50;91.10;;;;;;6340318;22;19938;-95
2022/09/11 04:15:25;;;;;;;;;;;16.50;91.20;;;;;;6339990;22;19956;-95
2022/09/11 04:17:51;;;;;;;;;;;16.50;91.20;;;;;;6340273;22;19937;-95
2022/09/11 04:20:17;;;;;;;;;;;16.40;91.30;;;;;;6340227;22;19989;-95
2022/09/11 04:22:42;;;;;;;;;;;16.40;91.20;;;;;;6340218;22;20020;-95
2022/09/11 04:25:09;;;;;;;;;;;16.30;91.40;;;;;;6340329;22;19984;-95
2022/09/11 04:27:35;;;;;;;;;;;16.30;91.60;;;;;;6340511;22;20356;-95
2022/09/11 04:30:00;;;;;;;;;;;16.30;91.70;;;;;;6312451;22;19938;-94
2022/09/11 04:32:27;;;;;;;;;;;16.30;91.80;;;;;;6340373;22;19939;-95
2022/09/11 04:34:53;;;;;;;;;;;16.30;91.80;;;;;;6339780;22;19993;-96
2022/09/11 04:37:18;;;;;;;;;;;16.40;91.70;;;;;;6340960;22;19993;-95
2022/09/11 04:39:44;;;;;;;;;;;16.40;91.60;;;;;;6340594;22;19948;-95
2022/09/11 04:42:10;;;;;;;;;;;16.30;91.40;;;;;;6342972;22;19987;-94
2022/09/11 04:44:36;;;;;;;;;;;16.30;91.30;;;;;;6343924;22;19941;-94
2022/09/11 04:47:01;;;;;;;;;;;16.10;91.40;;;;;;6343798;22;19935;-94
2022/09/11 04:49:27;;;;;;;;;;;16.10;92.00;;;;;;6343751;22;19941;-95
2022/09/11 04:51:53;;;;;;;;;;;16.00;92.20;;;;;;6315621;22;19935;-95
2022/09/11 04:54:20;;;;;;;;;;;16.00;92.30;;;;;;6343592;22;20423;-95
2022/09/11 04:56:46;;;;;;;;;;;16.00;92.90;;;;;;6343051;22;19958;-95
2022/09/11 04:59:21;;;;;;;;;;;16.00;92.90;;;;;;6342298;22;20356;-95
2022/09/11 05:01:46;;;;;;;;;;;16.00;92.90;;;;;;6314953;22;19975;-95
2022/09/11 05:04:13;;;;;;;;;;;16.00;93.00;;;;;;6341827;22;19931;-95
2022/09/11 05:06:39;;;;;;;;;;;16.20;93.30;;;;;;6340533;22;19958;-96
2022/09/11 05:09:05;;;;;;;;;;;16.30;93.20;;;;;;6312532;22;20265;-95
2022/09/11 05:11:31;;;;;;;;;;;16.30;93.00;;;;;;6341136;22;19984;-94
2022/09/11 05:13:59;;;;;;;;;;;16.30;92.80;;;;;;6340015;22;20406;-95
2022/09/11 05:16:26;;;;;;;;;;;16.50;92.60;;;;;;6340086;22;19967;-95
2022/09/11 05:18:52;;;;;;;;;;;16.60;92.20;;;;;;6339877;22;20392;-94
2022/09/11 05:21:21;;;;;;;;;;;16.60;92.00;;;;;;6340078;22;19937;-95
2022/09/11 05:23:50;;;;;;;;;;;16.60;91.60;;;;;;6340055;22;20013;-95
2022/09/11 05:26:17;;;;;;;;;;;16.60;91.50;;;;;;6340448;22;20394;-96
2022/09/11 05:28:43;;;;;;;;;;;16.60;91.60;;;;;;6339758;22;19956;-95
2022/09/11 05:31:12;;;;;;;;;;;16.70;91.60;;;;;;6339905;22;20346;-95
2022/09/11 05:33:39;;;;;;;;;;;16.70;91.60;;;;;;6339752;22;19964;-95
2022/09/11 05:36:05;;;;;;;;;;;16.70;91.50;;;;;;6340065;22;19934;-95
2022/09/11 05:38:30;;;;;;;;;;;16.80;91.50;;;;;;6339903;22;19955;-95
2022/09/11 05:40:56;;;;;;;;;;;16.80;91.40;;;;;;6339664;22;19969;-95
2022/09/11 05:43:21;;;;;;;;;;;16.80;91.20;;;;;;6311816;22;20402;-95
2022/09/11 05:45:54;;;;;;;;;;;16.90;91.10;;;;;;6339796;22;19936;-96
2022/09/11 05:48:20;;;;;;;;;;;16.90;90.90;;;;;;6342343;22;19935;-95
2022/09/11 05:50:52;;;;;;;;;;;16.90;90.80;;;;;;6341587;22;19971;-95
2022/09/11 05:53:19;;;;;;;;;;;17.00;90.90;;;;;;6341541;22;19939;-95
2022/09/11 05:55:46;;;;;;;;;;;17.00;90.80;;;;;;6341724;22;19975;-96
2022/09/11 05:58:12;;;;;;;;;;;17.10;90.90;;;;;;6341590;22;19961;-95
2022/09/11 06:00:37;;;;;;;;;;;17.20;90.90;;;;;;6341828;22;19984;-96
2022/09/11 06:03:04;;;;;;;;;;;17.20;91.00;;;;;;6341683;22;19984;-95
2022/09/11 06:05:29;;;;;;;;;;;17.20;90.90;;;;;;6313767;22;19941;-95
2022/09/11 06:07:55;;;;;;;;;;;17.30;90.90;;;;;;6314596;22;19983;-95
2022/09/11 06:10:21;;;;;;;;;;;17.30;90.80;;;;;;6341574;22;20003;-95
2022/09/11 06:12:47;;;;;;;;;;;17.30;90.60;;;;;;6341602;22;19938;-95
2022/09/11 06:15:12;;;;;;;;;;;17.40;90.40;;;;;;6341408;22;19955;-95
2022/09/11 06:17:38;;;;;;;;;;;17.40;89.80;;;;;;6341653;22;20077;-95
2022/09/11 06:20:03;;;;;;;;;;;17.50;89.60;;;;;;6341359;22;19938;-95
2022/09/11 06:22:32;;;;;;;;;;;17.60;88.70;;;;;;6341737;22;20017;-95
2022/09/11 06:24:57;;;;;;;;;;;17.60;87.90;;;;;;6341489;22;19944;-95
2022/09/11 06:27:23;;;;;;;;;;;17.70;87.80;;;;;;6341214;22;19932;-95
2022/09/11 06:29:49;;;;;;;;;;;17.70;87.50;;;;;;6341249;22;19933;-95
2022/09/11 06:32:15;;;;;;;;;;;17.80;87.60;;;;;;6341431;22;19935;-95
2022/09/11 06:34:40;;;;;;;;;;;17.90;87.80;;;;;;6340854;22;20368;-96
2022/09/11 06:37:06;;;;;;;;;;;17.90;87.70;;;;;;6341027;22;19966;-94
2022/09/11 06:39:33;;;;;;;;;;;18.00;87.80;;;;;;6341011;22;19951;-94
2022/09/11 06:41:58;;;;;;;;;;;18.10;87.50;;;;;;6340839;22;19966;-95
2022/09/11 06:44:25;;;;;;;;;;;18.10;87.20;;;;;;6340951;22;19939;-95
2022/09/11 06:46:51;;;;;;;;;;;18.20;87.30;;;;;;6313311;22;20010;-95
2022/09/11 06:49:16;;;;;;;;;;;18.20;86.30;;;;;;6340938;22;19962;-95
2022/09/11 06:51:42;;;;;;;;;;;18.20;86.10;;;;;;6340961;22;19968;-94
2022/09/11 06:54:08;;;;;;;;;;;18.30;86.00;;;;;;6341011;22;19954;-95
2022/09/11 06:56:33;;;;;;;;;;;18.30;85.90;;;;;;6340908;22;19936;-95
2022/09/11 06:58:59;;;;;;;;;;;18.40;86.10;;;;;;6340492;22;19941;-95
2022/09/11 07:01:25;;;;;;;;;;;18.50;85.80;;;;;;6341496;22;19983;-95
2022/09/11 07:03:52;;;;;;;;;;;18.60;85.50;;;;;;6313291;22;19938;-95
2022/09/11 07:06:19;;;;;;;;;;;18.70;85.30;;;;;;6340840;22;19939;-95
2022/09/11 07:08:59;;;;;;;;;;;18.80;84.80;;;;;;6340759;22;19985;-95
2022/09/11 07:11:25;;;;;;;;;;;18.90;84.30;;;;;;6313300;22;19945;-96
2022/09/11 07:13:51;;;;;;;;;;;19.10;83.30;;;;;;6340896;22;20379;-95
2022/09/11 07:16:17;;;;;;;;;;;19.30;82.80;;;;;;6313807;22;19961;-95
2022/09/11 07:18:43;;;;;;;;;;;19.40;81.90;;;;;;6340832;22;19933;-95
2022/09/11 07:21:13;;;;;;;;;;;19.40;82.40;;;;;;6313128;22;20426;-95
2022/09/11 07:23:39;;;;;;;;;;;19.50;82.30;;;;;;6340760;22;19992;-95
2022/09/11 07:26:07;;;;;;;;;;;19.60;81.10;;;;;;6340852;22;19940;-95
2022/09/11 07:28:33;;;;;;;;;;;19.60;80.70;;;;;;6312923;22;19934;-95
2022/09/11 07:31:10;;;;;;;;;;;19.60;80.80;;;;;;6341073;22;20242;-95
2022/09/11 07:33:37;;;;;;;;;;;19.60;80.50;;;;;;6341170;22;19934;-95
2022/09/11 07:36:10;;;;;;;;;;;19.70;80.10;;;;;;6340963;22;19979;-95
2022/09/11 07:38:37;;;;;;;;;;;19.80;79.50;;;;;;6340780;22;19958;-96
2022/09/11 07:41:03;;;;;;;;;;;19.80;79.00;;;;;;6340385;22;20013;-95
2022/09/11 07:43:28;;;;;;;;;;;19.90;78.80;;;;;;6312903;22;19946;-96
2022/09/11 07:45:55;;;;;;;;;;;19.90;78.60;;;;;;6313946;22;19938;-95
2022/09/11 07:48:21;;;;;;;;;;;20.00;78.40;;;;;;6340480;22;19936;-96
2022/09/11 07:50:56;;;;;;;;;;;20.20;79.00;;;;;;6312889;22;19940;-96
2022/09/11 07:53:22;;;;;;;;;;;20.30;79.30;;;;;;6340732;22;20298;-95
2022/09/11 07:55:48;;;;;;;;;;;20.40;78.10;;;;;;6340526;22;19959;-95
2022/09/11 07:58:14;;;;;;;;;;;20.50;76.90;;;;;;6312923;22;20356;-96
2022/09/11 08:00:39;;;;;;;;;;;20.50;75.80;;;;;;6340396;22;19933;-95
2022/09/11 08:03:05;;;;;;;;;;;20.60;75.90;;;;;;6340533;22;20010;-94
2022/09/11 08:05:30;;;;;;;;;;;20.70;74.90;;;;;;6312663;22;19931;-96
2022/09/11 08:07:56;;;;;;;;;;;20.80;75.30;;;;;;6312665;22;19943;-95
2022/09/11 08:10:22;;;;;;;;;;;20.80;75.00;;;;;;6340444;22;19941;-95
2022/09/11 08:12:47;;;;;;;;;;;20.90;74.90;;;;;;6340316;22;19960;-95
2022/09/11 08:15:13;;;;;;;;;;;20.90;74.60;;;;;;6340072;22;20002;-95
2022/09/11 08:17:38;;;;;;;;;;;21.00;73.60;;;;;;6340220;22;20410;-96
2022/09/11 08:20:04;;;;;;;;;;;21.00;73.00;;;;;;6312542;22;20279;-96
2022/09/11 08:22:30;;;;;;;;;;;21.20;75.40;;;;;;6312536;22;20063;-95
2022/09/11 08:24:55;;;;;;;;;;;21.20;72.50;;;;;;6340559;22;19934;-96
2022/09/11 08:27:21;;;;;;;;;;;21.20;72.10;;;;;;6312451;22;19980;-96
2022/09/11 08:29:46;;;;;;;;;;;21.20;72.00;;;;;;6312381;22;19940;-96
2022/09/11 08:32:12;;;;;;;;;;;21.30;71.50;;;;;;6339965;22;19938;-96
2022/09/11 08:34:38;;;;;;;;;;;21.40;70.90;;;;;;6312211;22;20033;-96
2022/09/11 08:37:03;;;;;;;;;;;21.50;70.90;;;;;;6339596;22;19931;-95
2022/09/11 08:39:29;;;;;;;;;;;21.50;69.90;;;;;;6339902;22;19960;-96
2022/09/11 08:41:58;;;;;;;;;;;21.60;69.50;;;;;;6339822;22;20279;-95
2022/09/11 08:44:26;;;;;;;;;;;21.70;71.00;;;;;;6340140;22;20304;-96
2022/09/11 08:46:58;;;;;;;;;;;21.70;70.90;;;;;;6339877;22;19983;-95
2022/09/11 08:49:25;;;;;;;;;;;21.80;68.30;;;;;;6340017;22;19937;-95
2022/09/11 08:51:52;;;;;;;;;;;21.80;66.30;;;;;;6340679;22;20061;-95
2022/09/11 08:54:26;;;;;;;;;;;22.00;65.20;;;;;;6312167;22;20385;-96
2022/09/11 08:56:56;;;;;;;;;;;22.10;65.70;;;;;;6340106;22;19932;-96
2022/09/11 08:59:28;;;;;;;;;;;22.20;63.00;;;;;;6340598;22;20003;-95
2022/09/11 09:01:57;;;;;;;;;;;22.20;63.70;;;;;;6339858;22;19933;-96
2022/09/11 09:04:41;;;;;;;;;;;22.20;65.00;;;;;;6312861;22;19941;-95
2022/09/11 09:07:12;;;;;;;;;;;22.30;64.70;;;;;;6340239;22;19927;-96
2022/09/11 09:09:54;;;;;;;;;;;22.40;64.70;;;;;;6312107;22;20267;-96
2022/09/11 09:12:32;;;;;;;;;;;22.50;65.20;;;;;;6312071;22;19934;-96
2022/09/11 09:15:10;;;;;;;;;;;22.60;65.10;;;;;;6339627;22;20023;-95
2022/09/11 09:17:55;;;;;;;;;;;22.70;62.90;;;;;;6340504;22;20347;-96
2022/09/11 09:20:26;;;;;;;;;;;22.80;64.80;;;;;;6312385;22;19947;-96
2022/09/11 09:22:54;;;;;;;;;;;22.80;62.80;;;;;;6339742;22;19961;-95
2022/09/11 09:25:23;;;;;;;;;;;23.00;65.90;;;;;;6340434;22;19942;-95
2022/09/11 09:28:05;;;;;;;;;;;23.10;65.40;;;;;;6340012;22;19948;-96
2022/09/11 09:30:36;;;;;;;;;;;23.10;63.20;;;;;;6340015;22;20347;-96
2022/09/11 09:33:10;;;;;;;;;;;23.20;61.50;;;;;;6340008;22;19943;-95
2022/09/11 09:35:40;;;;;;;;;;;23.20;57.90;;;;;;6339628;22;19953;-95
2022/09/11 09:38:12;;;;;;;;;;;23.30;57.20;;;;;;6339904;22;19938;-95
2022/09/11 09:40:43;;;;;;;;;;;23.30;60.40;;;;;;6339213;22;19981;-96
2022/09/11 09:43:18;;;;;;;;;;;23.40;60.30;;;;;;6339722;22;19936;-95
2022/09/11 09:45:43;;;;;;;;;;;23.50;56.40;;;;;;6340364;22;19931;-95
2022/09/11 09:48:10;;;;;;;;;;;23.50;58.50;;;;;;6339604;22;19943;-96
2022/09/11 09:50:38;;;;;;;;;;;23.50;55.60;;;;;;6340334;22;19934;-96
2022/09/11 09:53:10;;;;;;;;;;;23.60;56.50;;;;;;6339548;22;19953;-95
2022/09/11 09:55:37;;;;;;;;;;;23.80;59.80;;;;;;6311798;22;19966;-96
2022/09/11 09:58:03;;;;;;;;;;;23.90;58.30;;;;;;6340187;22;19935;-95
2022/09/11 10:00:31;;;;;;;;;;;24.00;55.50;;;;;;6339559;22;20322;-95
2022/09/11 10:02:57;;;;;;;;;;;24.00;55.80;;;;;;6339892;22;20348;-96
2022/09/11 10:05:24;;;;;;;;;;;23.90;55.70;;;;;;6311773;22;19948;-95
2022/09/11 10:08:01;;;;;;;;;;;24.00;55.80;;;;;;6311748;22;19940;-95
2022/09/11 10:10:35;;;;;;;;;;;24.00;53.90;;;;;;6339845;22;20015;-95
2022/09/11 10:13:02;;;;;;;;;;;24.00;55.50;;;;;;6340089;22;20332;-96
2022/09/11 10:15:28;;;;;;;;;;;24.00;55.90;;;;;;6339615;22;19956;-95
2022/09/11 10:18:15;;;;;;;;;;;24.00;54.60;;;;;;6340429;22;19934;-96
2022/09/11 10:20:41;;;;;;;;;;;24.10;54.20;;;;;;6312271;22;19934;-95
2022/09/11 10:23:39;;;;;;;;;;;24.20;58.30;;;;;;6311792;22;19943;-96
2022/09/11 10:26:05;;;;;;;;;;;24.20;54.50;;;;;;6228570;22;19940;-96
2022/09/11 10:28:31;;;;;;;;;;;24.40;52.60;;;;;;6340092;22;19935;-96
2022/09/11 10:30:59;;;;;;;;;;;24.50;54.20;;;;;;6339734;22;19944;-96
2022/09/11 10:33:27;;;;;;;;;;;24.60;50.00;;;;;;6312174;22;19940;-96
2022/09/11 10:35:54;;;;;;;;;;;24.70;54.00;;;;;;6341871;22;19941;-96
2022/09/11 10:38:20;;;;;;;;;;;24.70;50.00;;;;;;6313727;22;19943;-96
2022/09/11 10:40:57;;;;;;;;;;;24.70;53.60;;;;;;6341322;22;20006;-96
2022/09/11 10:43:25;;;;;;;;;;;24.80;49.80;;;;;;6341460;22;19934;-96
2022/09/11 10:46:00;;;;;;;;;;;25.00;50.30;;;;;;6341322;22;19975;-95
2022/09/11 10:48:26;;;;;;;;;;;25.10;51.90;;;;;;6341417;22;19983;-96
2022/09/11 10:51:04;;;;;;;;;;;25.20;48.70;;;;;;6313488;22;19937;-96
2022/09/11 10:53:32;;;;;;;;;;;25.30;51.20;;;;;;6313483;22;19947;-96
2022/09/11 10:56:02;;;;;;;;;;;25.30;51.10;;;;;;6313538;22;19946;-96
2022/09/11 10:58:32;;;;;;;;;;;25.10;49.10;;;;;;6341415;22;20060;-96
2022/09/11 11:00:57;;;;;;;;;;;25.00;50.40;;;;;;6341157;22;19930;-96
2022/09/11 11:03:25;;;;;;;;;;;25.10;49.60;;;;;;6341852;22;19931;-95
2022/09/11 11:05:53;;;;;;;;;;;25.20;49.60;;;;;;6341170;22;19933;-96
2022/09/11 11:08:28;;;;;;;;;;;25.30;52.40;;;;;;6342081;22;19958;-96
2022/09/11 11:11:02;;;;;;;;;;;25.50;51.60;;;;;;6341081;22;19928;-96
2022/09/11 11:13:37;;;;;;;;;;;25.60;50.30;;;;;;6341141;22;19936;-96
2022/09/11 11:16:26;;;;;;;;;;;25.70;49.50;;;;;;6340854;22;19961;-96
2022/09/11 11:18:52;;;;;;;;;;;25.60;49.80;;;;;;6341190;22;19983;-96
2022/09/11 11:21:50;;;;;;;;;;;25.80;49.20;;;;;;6313306;22;19943;-95
2022/09/11 11:24:16;;;;;;;;;;;25.90;47.60;;;;;;6255588;22;19942;-96
2022/09/11 11:26:58;;;;;;;;;;;26.20;49.20;;;;;;6313269;22;20018;-96
2022/09/11 11:29:35;;;;;;;;;;;26.40;51.20;;;;;;6341262;22;19945;-96
2022/09/11 11:32:10;;;;;;;;;;;26.70;46.60;;;;;;6341044;22;19938;-96
2022/09/11 11:35:00;;;;;;;;;;;26.60;46.40;;;;;;6340980;22;19951;-96
2022/09/11 11:37:35;;;;;;;;;;;26.50;46.60;;;;;;6340651;22;20011;-96
2022/09/11 11:40:04;;;;;;;;;;;26.50;47.40;;;;;;6312883;22;19989;-96
2022/09/11 11:42:34;;;;;;;;;;;26.80;45.40;;;;;;6313220;22;19951;-96
2022/09/11 11:45:21;;;;;;;;;;;27.00;45.40;;;;;;6341721;22;19964;-96
2022/09/11 11:47:47;;;;;;;;;;;27.10;45.50;;;;;;6340584;22;19930;-96
2022/09/11 11:50:20;;;;;;;;;;;27.30;46.30;;;;;;6313554;22;20349;-96
2022/09/11 11:52:53;;;;;;;;;;;27.60;45.10;;;;;;6341280;22;19996;-96
2022/09/11 11:55:22;;;;;;;;;;;27.80;44.70;;;;;;6340478;22;19957;-95
2022/09/11 11:57:56;;;;;;;;;;;28.10;42.90;;;;;;6340929;22;19930;-96
2022/09/11 12:00:21;;;;;;;;;;;28.40;43.70;;;;;;6340705;22;19934;-96
2022/09/11 12:03:13;;;;;;;;;;;28.60;41.20;;;;;;6312710;22;19939;-96
2022/09/11 12:05:39;;;;;;;;;;;28.20;42.80;;;;;;6306423;22;20022;-96
2022/09/11 12:08:10;;;;;;;;;;;27.70;43.80;;;;;;6340834;22;20243;-96
2022/09/11 12:10:37;;;;;;;;;;;27.70;44.40;;;;;;6340815;22;19937;-96
2022/09/11 12:13:05;;;;;;;;;;;27.60;43.80;;;;;;6340372;22;19934;-96
2022/09/11 12:15:33;;;;;;;;;;;27.90;44.50;;;;;;6340156;22;20391;-96
2022/09/11 12:18:00;;;;;;;;;;;27.80;44.40;;;;;;6312657;22;19938;-96
2022/09/11 12:20:29;;;;;;;;;;;27.80;45.30;;;;;;6340748;22;19934;-96
2022/09/11 12:22:55;;;;;;;;;;;28.40;42.00;;;;;;6340399;22;19947;-96
2022/09/11 12:25:20;;;;;;;;;;;28.50;41.20;;;;;;6340899;22;19953;-96
2022/09/11 12:27:47;;;;;;;;;;;28.10;42.40;;;;;;6340685;22;19963;-96
2022/09/11 12:30:15;;;;;;;;;;;28.30;40.50;;;;;;6313375;22;19937;-96
2022/09/11 12:32:43;;;;;;;;;;;29.00;39.30;;;;;;6341205;22;19931;-96
2022/09/11 12:35:41;;;;;;;;;;;30.10;38.60;;;;;;6341760;22;19962;-96
2022/09/11 12:38:07;;;;;;;;;;;30.40;38.60;;;;;;6256631;22;19935;-96
2022/09/11 12:40:45;;;;;;;;;;;31.30;35.80;;;;;;6314241;22;19970;-96
2022/09/11 12:43:33;;;;;;;;;;;32.10;35.60;;;;;;6314810;22;20303;-96
2022/09/11 12:46:00;;;;;;;;;;;32.60;33.70;;;;;;6339668;22;20011;-96
2022/09/11 12:48:37;;;;;;;;;;;32.20;33.90;;;;;;6315482;22;19940;-96
2022/09/11 12:51:04;;;;;;;;;;;32.20;33.60;;;;;;6341362;22;19983;-96
2022/09/11 12:53:34;;;;;;;;;;;31.40;33.90;;;;;;6342947;22;20057;-96
2022/09/11 12:56:02;;;;;;;;;;;31.70;33.40;;;;;;6340860;22;19943;-96
2022/09/11 12:58:34;;;;;;;;;;;31.80;33.30;;;;;;6315705;22;19949;-96
2022/09/11 13:01:01;;;;;;;;;;;32.70;33.20;;;;;;6346344;22;19930;-96
2022/09/11 13:03:28;;;;;;;;;;;33.50;31.50;;;;;;6317391;22;20371;-96
2022/09/11 13:05:56;;;;;;;;;;;33.90;31.30;;;;;;6316932;22;20325;-96
2022/09/11 13:08:23;;;;;;;;;;;33.90;31.40;;;;;;6316635;22;19939;-96
2022/09/11 13:10:49;;;;;;;;;;;34.70;29.80;;;;;;6344714;22;19932;-96
2022/09/11 13:13:39;;;;;;;;;;;35.80;29.60;;;;;;6344139;22;20267;-96
2022/09/11 13:16:24;;;;;;;;;;;35.70;28.80;;;;;;6315702;22;19954;-96
2022/09/11 13:18:52;;;;;;;;;;;35.30;29.70;;;;;;6343699;22;20269;-96
2022/09/11 13:21:18;;;;;;;;;;;35.20;30.00;;;;;;6314457;22;20097;-96
2022/09/11 13:23:45;;;;;;;;;;;34.40;30.50;;;;;;6343332;22;20343;-96
2022/09/11 13:26:40;;;;;;;;;;;33.90;31.40;;;;;;6317451;22;19936;-96
2022/09/11 13:29:12;;;;;;;;;;;34.20;31.10;;;;;;6287728;22;19989;-96
2022/09/11 13:31:38;;;;;;;;;;;34.60;30.70;;;;;;6316094;22;19941;-96
2022/09/11 13:34:06;;;;;;;;;;;35.10;30.90;;;;;;6343824;22;19952;-96
2022/09/11 13:36:33;;;;;;;;;;;35.70;29.40;;;;;;6343606;22;20369;-96
2022/09/11 13:39:00;;;;;;;;;;;35.60;29.30;;;;;;6314938;22;19981;-96
2022/09/11 13:41:31;;;;;;;;;;;35.50;28.30;;;;;;6315349;22;19982;-96
2022/09/11 13:43:58;;;;;;;;;;;35.20;29.30;;;;;;6315284;22;20377;-96
2022/09/11 13:46:27;;;;;;;;;;;35.40;29.10;;;;;;6343707;22;19965;-96
2022/09/11 13:49:01;;;;;;;;;;;35.60;29.20;;;;;;6342975;22;22465;-96
2022/09/11 13:51:28;;;;;;;;;;;35.20;27.70;;;;;;6341632;22;20004;-96
2022/09/11 13:53:55;;;;;;;;;;;35.60;27.90;;;;;;6340532;22;20003;-96
2022/09/11 13:56:40;;;;;;;;;;;34.20;29.10;;;;;;6341349;22;19964;-96
2022/09/11 13:59:24;;;;;;;;;;;34.30;29.20;;;;;;6341843;22;19938;-96
2022/09/11 14:01:52;;;;;;;;;;;32.60;31.40;;;;;;6313799;22;20610;-96
2022/09/11 14:04:20;;;;;;;;;;;32.80;31.70;;;;;;6342680;22;20006;-96
2022/09/11 14:06:46;;;;;;;;;;;32.70;31.80;;;;;;6315197;22;19932;-96
2022/09/11 14:09:17;;;;;;;;;;;33.30;30.50;;;;;;6348705;22;19938;-96
2022/09/11 14:11:43;;;;;;;;;;;33.70;30.10;;;;;;6351119;22;19941;-96
2022/09/11 14:14:11;;;;;;;;;;;34.40;29.90;;;;;;6323865;22;19952;-96
2022/09/11 14:16:43;;;;;;;;;;;34.70;29.80;;;;;;6351435;22;19930;-96
2022/09/11 14:19:17;;;;;;;;;;;34.80;29.80;;;;;;6350510;22;20076;-96
2022/09/11 14:21:45;;;;;;;;;;;34.80;29.20;;;;;;6328692;22;20016;-96
2022/09/11 14:24:28;;;;;;;;;;;35.40;28.40;;;;;;6325531;22;19970;-96
2022/09/11 14:26:57;;;;;;;;;;;36.10;28.20;;;;;;6352670;22;19932;-96
2022/09/11 14:29:27;;;;;;;;;;;36.30;27.90;;;;;;6326102;22;19941;-96
2022/09/11 14:31:53;;;;;;;;;;;37.30;27.60;;;;;;6353119;22;20249;-96